sensor_id;sensor_type;location;lat;lon;timestamp;temperature;humidity
5870;DHT22;2961;47.702;9.410;2023-05-08T00:01:01;13.40;99.90
5870;DHT22;2961;47.702;9.410;2023-05-08T00:03:28;13.40;99.90
5870;DHT22;2961;47.702;9.410;2023-05-08T00:05:54;13.40;99.90
5870;DHT22;2961;47.702;9.410;2023-05-08T00:08:21;13.40;99.90
5870;DHT22;2961;47.702;9.410;2023-05-08T00:10:50;13.40;99.90
5870;DHT22;2961;47.702;9.410;2023-05-08T00:13:16;13.40;99.90
5870;DHT22;2961;47.702;9.410;2023-05-08T00:15:43;13.40;99.90
5870;DHT22;2961;47.702;9.410;2023-05-08T00:18:10;13.40;99.90
5870;DHT22;2961;47.702;9.410;2023-05-08T00:20:37;13.40;99.90
5870;DHT22;2961;47.702;9.410;2023-05-08T00:23:04;13.40;99.90
5870;DHT22;2961;47.702;9.410;2023-05-08T00:25:30;13.40;99.90
5870;DHT22;2961;47.702;9.410;2023-05-08T00:27:59;13.40;99.90
5870;DHT22;2961;47.702;9.410;2023-05-08T00:30:26;13.40;99.90
5870;DHT22;2961;47.702;9.410;2023-05-08T00:32:52;13.40;99.90
5870;DHT22;2961;47.702;9.410;2023-05-08T00:35:20;13.50;99.90
5870;DHT22;2961;47.702;9.410;2023-05-08T00:37:47;13.50;99.90
5870;DHT22;2961;47.702;9.410;2023-05-08T00:40:13;13.50;99.90
5870;DHT22;2961;47.702;9.410;2023-05-08T00:42:40;13.50;99.90
5870;DHT22;2961;47.702;9.410;2023-05-08T00:45:09;13.40;99.90
5870;DHT22;2961;47.702;9.410;2023-05-08T00:47:37;13.40;99.90
5870;DHT22;2961;47.702;9.410;2023-05-08T00:50:05;13.40;99.90
5870;DHT22;2961;47.702;9.410;2023-05-08T00:52:32;13.40;99.90
5870;DHT22;2961;47.702;9.410;2023-05-08T00:55:00;13.40;99.90
5870;DHT22;2961;47.702;9.410;2023-05-08T00:57:28;13.40;99.90
5870;DHT22;2961;47.702;9.410;2023-05-08T00:59:56;13.50;99.90
5870;DHT22;2961;47.702;9.410;2023-05-08T01:02:24;13.50;99.90
5870;DHT22;2961;47.702;9.410;2023-05-08T01:04:52;13.50;99.90
5870;DHT22;2961;47.702;9.410;2023-05-08T01:07:19;13.40;99.90
5870;DHT22;2961;47.702;9.410;2023-05-08T01:09:47;13.40;99.90
5870;DHT22;2961;47.702;9.410;2023-05-08T01:12:18;13.40;99.90
5870;DHT22;2961;47.702;9.410;2023-05-08T01:14:59;13.40;99.90
5870;DHT22;2961;47.702;9.410;2023-05-08T01:17:38;13.40;99.90
5870;DHT22;2961;47.702;9.410;2023-05-08T01:20:31;13.40;99.90
5870;DHT22;2961;47.702;9.410;2023-05-08T01:23:44;13.50;99.90
5870;DHT22;2961;47.702;9.410;2023-05-08T01:30:06;13.40;99.90
5870;DHT22;2961;47.702;9.410;2023-05-08T01:32:41;13.40;99.90
5870;DHT22;2961;47.702;9.410;2023-05-08T01:35:16;13.40;99.90
5870;DHT22;2961;47.702;9.410;2023-05-08T01:37:50;13.40;99.90
5870;DHT22;2961;47.702;9.410;2023-05-08T01:40:27;13.30;99.90
5870;DHT22;2961;47.702;9.410;2023-05-08T01:43:05;13.40;99.90
5870;DHT22;2961;47.702;9.410;2023-05-08T01:45:38;13.40;99.90
5870;DHT22;2961;47.702;9.410;2023-05-08T01:48:08;13.40;99.90
5870;DHT22;2961;47.702;9.410;2023-05-08T01:50:39;13.40;99.90
5870;DHT22;2961;47.702;9.410;2023-05-08T01:53:18;13.30;99.90
5870;DHT22;2961;47.702;9.410;2023-05-08T01:55:50;13.30;99.90
5870;DHT22;2961;47.702;9.410;2023-05-08T01:58:19;13.30;99.90
5870;DHT22;2961;47.702;9.410;2023-05-08T02:00:47;13.30;99.90
5870;DHT22;2961;47.702;9.410;2023-05-08T02:03:18;13.30;99.90
5870;DHT22;2961;47.702;9.410;2023-05-08T02:05:48;13.40;99.90
5870;DHT22;2961;47.702;9.410;2023-05-08T02:08:17;13.40;99.90
5870;DHT22;2961;47.702;9.410;2023-05-08T02:10:47;13.40;99.90
5870;DHT22;2961;47.702;9.410;2023-05-08T02:13:15;13.40;99.90
5870;DHT22;2961;47.702;9.410;2023-05-08T02:15:45;13.40;99.90
5870;DHT22;2961;47.702;9.410;2023-05-08T02:18:13;13.40;99.90
5870;DHT22;2961;47.702;9.410;2023-05-08T02:20:42;13.30;99.90
5870;DHT22;2961;47.702;9.410;2023-05-08T02:23:10;13.30;99.90
5870;DHT22;2961;47.702;9.410;2023-05-08T02:25:38;13.30;99.90
5870;DHT22;2961;47.702;9.410;2023-05-08T02:28:06;13.30;99.90
5870;DHT22;2961;47.702;9.410;2023-05-08T02:30:33;13.30;99.90
5870;DHT22;2961;47.702;9.410;2023-05-08T02:33:02;13.30;99.90
5870;DHT22;2961;47.702;9.410;2023-05-08T02:35:30;13.30;99.90
5870;DHT22;2961;47.702;9.410;2023-05-08T02:37:59;13.30;99.90
5870;DHT22;2961;47.702;9.410;2023-05-08T02:40:28;13.30;99.90
5870;DHT22;2961;47.702;9.410;2023-05-08T02:42:55;13.30;99.90
5870;DHT22;2961;47.702;9.410;2023-05-08T02:45:23;13.20;99.90
5870;DHT22;2961;47.702;9.410;2023-05-08T02:47:54;13.20;99.90
5870;DHT22;2961;47.702;9.410;2023-05-08T02:50:31;13.30;99.90
5870;DHT22;2961;47.702;9.410;2023-05-08T02:53:06;13.30;99.90
5870;DHT22;2961;47.702;9.410;2023-05-08T02:55:39;13.30;99.90
5870;DHT22;2961;47.702;9.410;2023-05-08T02:58:15;13.40;99.90
5870;DHT22;2961;47.702;9.410;2023-05-08T03:00:48;13.40;99.90
5870;DHT22;2961;47.702;9.410;2023-05-08T03:03:22;13.40;99.90
5870;DHT22;2961;47.702;9.410;2023-05-08T03:05:51;13.40;99.90
5870;DHT22;2961;47.702;9.410;2023-05-08T03:08:25;13.40;99.90
5870;DHT22;2961;47.702;9.410;2023-05-08T03:10:55;13.40;99.90
5870;DHT22;2961;47.702;9.410;2023-05-08T03:13:23;13.40;99.90
5870;DHT22;2961;47.702;9.410;2023-05-08T03:15:54;13.40;99.90
5870;DHT22;2961;47.702;9.410;2023-05-08T03:18:24;13.40;99.90
5870;DHT22;2961;47.702;9.410;2023-05-08T03:20:53;13.40;99.90
5870;DHT22;2961;47.702;9.410;2023-05-08T03:23:25;13.40;99.90
5870;DHT22;2961;47.702;9.410;2023-05-08T03:25:54;13.40;99.90
5870;DHT22;2961;47.702;9.410;2023-05-08T03:28:22;13.30;99.90
5870;DHT22;2961;47.702;9.410;2023-05-08T03:30:50;13.30;99.90
5870;DHT22;2961;47.702;9.410;2023-05-08T03:33:18;13.30;99.90
5870;DHT22;2961;47.702;9.410;2023-05-08T03:35:45;13.30;99.90
5870;DHT22;2961;47.702;9.410;2023-05-08T03:38:12;13.20;99.90
5870;DHT22;2961;47.702;9.410;2023-05-08T03:40:41;13.30;99.90
5870;DHT22;2961;47.702;9.410;2023-05-08T03:43:08;13.20;99.90
5870;DHT22;2961;47.702;9.410;2023-05-08T03:45:37;13.20;99.90
5870;DHT22;2961;47.702;9.410;2023-05-08T03:48:05;13.20;99.90
5870;DHT22;2961;47.702;9.410;2023-05-08T03:50:34;13.10;99.90
5870;DHT22;2961;47.702;9.410;2023-05-08T03:53:01;13.10;99.90
5870;DHT22;2961;47.702;9.410;2023-05-08T03:55:29;13.10;99.90
5870;DHT22;2961;47.702;9.410;2023-05-08T03:58:02;13.10;99.90
5870;DHT22;2961;47.702;9.410;2023-05-08T04:00:40;13.10;99.90
5870;DHT22;2961;47.702;9.410;2023-05-08T04:03:19;13.10;99.90
5870;DHT22;2961;47.702;9.410;2023-05-08T04:05:50;13.10;99.90
5870;DHT22;2961;47.702;9.410;2023-05-08T04:08:21;13.10;99.90
5870;DHT22;2961;47.702;9.410;2023-05-08T04:10:56;13.00;99.90
5870;DHT22;2961;47.702;9.410;2023-05-08T04:13:28;13.00;99.90
5870;DHT22;2961;47.702;9.410;2023-05-08T04:16:03;13.00;99.90
5870;DHT22;2961;47.702;9.410;2023-05-08T04:18:35;13.00;99.90
5870;DHT22;2961;47.702;9.410;2023-05-08T04:21:02;13.00;99.90
5870;DHT22;2961;47.702;9.410;2023-05-08T04:23:34;13.00;99.90
5870;DHT22;2961;47.702;9.410;2023-05-08T04:26:02;13.00;99.90
5870;DHT22;2961;47.702;9.410;2023-05-08T04:28:30;13.10;99.90
5870;DHT22;2961;47.702;9.410;2023-05-08T04:30:57;13.10;99.90
5870;DHT22;2961;47.702;9.410;2023-05-08T04:33:25;13.00;99.90
5870;DHT22;2961;47.702;9.410;2023-05-08T04:35:53;13.00;99.90
5870;DHT22;2961;47.702;9.410;2023-05-08T04:38:20;13.00;99.90
5870;DHT22;2961;47.702;9.410;2023-05-08T04:40:47;13.00;99.90
5870;DHT22;2961;47.702;9.410;2023-05-08T04:43:13;13.00;99.90
5870;DHT22;2961;47.702;9.410;2023-05-08T04:45:41;13.10;99.90
5870;DHT22;2961;47.702;9.410;2023-05-08T04:48:08;13.00;99.90
5870;DHT22;2961;47.702;9.410;2023-05-08T04:50:35;13.00;99.90
5870;DHT22;2961;47.702;9.410;2023-05-08T04:53:02;13.10;99.90
5870;DHT22;2961;47.702;9.410;2023-05-08T04:55:28;13.10;99.90
5870;DHT22;2961;47.702;9.410;2023-05-08T04:57:55;13.10;99.90
5870;DHT22;2961;47.702;9.410;2023-05-08T05:00:22;13.00;99.90
5870;DHT22;2961;47.702;9.410;2023-05-08T05:02:50;13.10;99.90
5870;DHT22;2961;47.702;9.410;2023-05-08T05:05:17;13.10;99.90
5870;DHT22;2961;47.702;9.410;2023-05-08T05:07:44;13.10;99.90
5870;DHT22;2961;47.702;9.410;2023-05-08T05:10:11;13.10;99.90
5870;DHT22;2961;47.702;9.410;2023-05-08T05:12:37;13.10;99.90
5870;DHT22;2961;47.702;9.410;2023-05-08T05:15:05;13.10;99.90
5870;DHT22;2961;47.702;9.410;2023-05-08T05:17:32;13.20;99.90
5870;DHT22;2961;47.702;9.410;2023-05-08T05:20:00;13.10;99.90
5870;DHT22;2961;47.702;9.410;2023-05-08T05:22:27;13.20;99.90
5870;DHT22;2961;47.702;9.410;2023-05-08T05:24:54;13.20;99.90
5870;DHT22;2961;47.702;9.410;2023-05-08T05:27:21;13.20;99.90
5870;DHT22;2961;47.702;9.410;2023-05-08T05:29:48;13.20;99.90
5870;DHT22;2961;47.702;9.410;2023-05-08T05:32:15;13.30;99.90
5870;DHT22;2961;47.702;9.410;2023-05-08T05:34:41;13.30;99.90
5870;DHT22;2961;47.702;9.410;2023-05-08T05:37:10;13.30;99.90
5870;DHT22;2961;47.702;9.410;2023-05-08T05:39:36;13.30;99.90
5870;DHT22;2961;47.702;9.410;2023-05-08T05:42:03;13.30;99.90
5870;DHT22;2961;47.702;9.410;2023-05-08T05:44:30;13.30;99.90
5870;DHT22;2961;47.702;9.410;2023-05-08T05:46:57;13.30;99.90
5870;DHT22;2961;47.702;9.410;2023-05-08T05:49:23;13.40;99.90
5870;DHT22;2961;47.702;9.410;2023-05-08T05:51:50;13.30;99.90
5870;DHT22;2961;47.702;9.410;2023-05-08T05:54:18;13.30;99.90
5870;DHT22;2961;47.702;9.410;2023-05-08T05:56:45;13.30;99.90
5870;DHT22;2961;47.702;9.410;2023-05-08T05:59:12;13.30;99.90
5870;DHT22;2961;47.702;9.410;2023-05-08T06:01:39;13.30;99.90
5870;DHT22;2961;47.702;9.410;2023-05-08T06:04:06;13.30;99.90
5870;DHT22;2961;47.702;9.410;2023-05-08T06:06:33;13.30;99.90
5870;DHT22;2961;47.702;9.410;2023-05-08T06:08:59;13.30;99.90
5870;DHT22;2961;47.702;9.410;2023-05-08T06:11:27;13.40;99.90
5870;DHT22;2961;47.702;9.410;2023-05-08T06:13:55;13.40;99.90
5870;DHT22;2961;47.702;9.410;2023-05-08T06:16:21;13.40;99.90
5870;DHT22;2961;47.702;9.410;2023-05-08T06:18:49;13.40;99.90
5870;DHT22;2961;47.702;9.410;2023-05-08T06:21:16;13.40;99.90
5870;DHT22;2961;47.702;9.410;2023-05-08T06:23:43;13.40;99.90
5870;DHT22;2961;47.702;9.410;2023-05-08T06:26:10;13.40;99.90
5870;DHT22;2961;47.702;9.410;2023-05-08T06:28:38;13.40;99.90
5870;DHT22;2961;47.702;9.410;2023-05-08T06:31:04;13.40;99.90
5870;DHT22;2961;47.702;9.410;2023-05-08T06:33:31;13.40;99.90
5870;DHT22;2961;47.702;9.410;2023-05-08T06:35:58;13.40;99.90
5870;DHT22;2961;47.702;9.410;2023-05-08T06:38:25;13.30;99.90
5870;DHT22;2961;47.702;9.410;2023-05-08T06:40:52;13.30;99.90
5870;DHT22;2961;47.702;9.410;2023-05-08T06:43:19;13.30;99.90
5870;DHT22;2961;47.702;9.410;2023-05-08T06:45:48;13.40;99.90
5870;DHT22;2961;47.702;9.410;2023-05-08T06:48:15;13.40;99.90
5870;DHT22;2961;47.702;9.410;2023-05-08T06:50:41;13.40;99.90
5870;DHT22;2961;47.702;9.410;2023-05-08T06:53:08;13.30;99.90
5870;DHT22;2961;47.702;9.410;2023-05-08T06:55:35;13.30;99.90
5870;DHT22;2961;47.702;9.410;2023-05-08T06:58:02;13.40;99.90
5870;DHT22;2961;47.702;9.410;2023-05-08T07:00:29;13.30;99.90
5870;DHT22;2961;47.702;9.410;2023-05-08T07:02:57;13.30;99.90
5870;DHT22;2961;47.702;9.410;2023-05-08T07:05:24;13.40;99.90
5870;DHT22;2961;47.702;9.410;2023-05-08T07:07:50;13.40;99.90
5870;DHT22;2961;47.702;9.410;2023-05-08T07:10:18;13.50;99.90
5870;DHT22;2961;47.702;9.410;2023-05-08T07:12:46;13.40;99.90
5870;DHT22;2961;47.702;9.410;2023-05-08T07:15:13;13.40;99.90
5870;DHT22;2961;47.702;9.410;2023-05-08T07:17:40;13.40;99.90
5870;DHT22;2961;47.702;9.410;2023-05-08T07:20:09;13.50;99.90
5870;DHT22;2961;47.702;9.410;2023-05-08T07:22:36;13.50;99.90
5870;DHT22;2961;47.702;9.410;2023-05-08T07:25:03;13.50;99.90
5870;DHT22;2961;47.702;9.410;2023-05-08T07:27:30;13.50;99.90
5870;DHT22;2961;47.702;9.410;2023-05-08T07:29:57;13.50;99.90
5870;DHT22;2961;47.702;9.410;2023-05-08T07:32:28;13.50;99.90
5870;DHT22;2961;47.702;9.410;2023-05-08T07:34:55;13.50;99.90
5870;DHT22;2961;47.702;9.410;2023-05-08T07:37:23;13.50;99.90
5870;DHT22;2961;47.702;9.410;2023-05-08T07:39:50;13.50;99.90
5870;DHT22;2961;47.702;9.410;2023-05-08T07:42:17;13.50;99.90
5870;DHT22;2961;47.702;9.410;2023-05-08T07:44:44;13.50;99.90
5870;DHT22;2961;47.702;9.410;2023-05-08T07:47:10;13.50;99.90
5870;DHT22;2961;47.702;9.410;2023-05-08T07:49:37;13.60;99.90
5870;DHT22;2961;47.702;9.410;2023-05-08T07:52:04;13.60;99.90
5870;DHT22;2961;47.702;9.410;2023-05-08T07:54:32;13.60;99.90
5870;DHT22;2961;47.702;9.410;2023-05-08T07:56:59;13.60;99.90
5870;DHT22;2961;47.702;9.410;2023-05-08T07:59:26;13.60;99.90
5870;DHT22;2961;47.702;9.410;2023-05-08T08:01:52;13.60;99.90
5870;DHT22;2961;47.702;9.410;2023-05-08T08:04:19;13.60;99.90
5870;DHT22;2961;47.702;9.410;2023-05-08T08:06:46;13.60;99.90
5870;DHT22;2961;47.702;9.410;2023-05-08T08:09:12;13.70;99.90
5870;DHT22;2961;47.702;9.410;2023-05-08T08:11:41;13.70;99.90
5870;DHT22;2961;47.702;9.410;2023-05-08T08:14:07;13.70;99.90
5870;DHT22;2961;47.702;9.410;2023-05-08T08:16:34;13.70;99.90
5870;DHT22;2961;47.702;9.410;2023-05-08T08:19:01;13.80;99.90
5870;DHT22;2961;47.702;9.410;2023-05-08T08:21:28;13.80;99.90
5870;DHT22;2961;47.702;9.410;2023-05-08T08:23:55;13.90;99.90
5870;DHT22;2961;47.702;9.410;2023-05-08T08:26:23;13.90;99.90
5870;DHT22;2961;47.702;9.410;2023-05-08T08:28:52;14.00;99.90
5870;DHT22;2961;47.702;9.410;2023-05-08T08:31:19;13.90;99.90
5870;DHT22;2961;47.702;9.410;2023-05-08T08:33:46;13.90;99.90
5870;DHT22;2961;47.702;9.410;2023-05-08T08:36:13;13.90;99.90
5870;DHT22;2961;47.702;9.410;2023-05-08T08:38:39;13.90;99.90
5870;DHT22;2961;47.702;9.410;2023-05-08T08:41:06;13.90;99.90
5870;DHT22;2961;47.702;9.410;2023-05-08T08:43:33;14.00;99.90
5870;DHT22;2961;47.702;9.410;2023-05-08T08:46:09;13.90;99.90
5870;DHT22;2961;47.702;9.410;2023-05-08T08:48:37;13.90;99.90
5870;DHT22;2961;47.702;9.410;2023-05-08T08:51:11;13.90;99.90
5870;DHT22;2961;47.702;9.410;2023-05-08T08:53:43;14.00;99.90
5870;DHT22;2961;47.702;9.410;2023-05-08T08:56:13;14.00;99.90
5870;DHT22;2961;47.702;9.410;2023-05-08T08:58:46;14.10;99.90
5870;DHT22;2961;47.702;9.410;2023-05-08T09:01:17;14.10;99.90
5870;DHT22;2961;47.702;9.410;2023-05-08T09:03:45;14.00;99.90
5870;DHT22;2961;47.702;9.410;2023-05-08T09:06:13;14.00;99.90
5870;DHT22;2961;47.702;9.410;2023-05-08T09:08:40;14.00;99.90
5870;DHT22;2961;47.702;9.410;2023-05-08T09:11:07;14.10;99.90
5870;DHT22;2961;47.702;9.410;2023-05-08T09:13:33;14.20;99.90
5870;DHT22;2961;47.702;9.410;2023-05-08T09:16:01;14.20;99.90
5870;DHT22;2961;47.702;9.410;2023-05-08T09:18:29;14.20;99.90
5870;DHT22;2961;47.702;9.410;2023-05-08T09:20:56;14.20;99.90
5870;DHT22;2961;47.702;9.410;2023-05-08T09:23:24;14.30;99.90
5870;DHT22;2961;47.702;9.410;2023-05-08T09:25:51;14.30;99.90
5870;DHT22;2961;47.702;9.410;2023-05-08T09:28:19;14.30;99.90
5870;DHT22;2961;47.702;9.410;2023-05-08T09:30:54;14.30;99.90
5870;DHT22;2961;47.702;9.410;2023-05-08T09:33:22;14.30;99.90
5870;DHT22;2961;47.702;9.410;2023-05-08T09:35:50;14.30;99.90
5870;DHT22;2961;47.702;9.410;2023-05-08T09:38:31;14.30;99.90
5870;DHT22;2961;47.702;9.410;2023-05-08T09:41:06;14.30;99.90
5870;DHT22;2961;47.702;9.410;2023-05-08T09:43:33;14.30;99.90
5870;DHT22;2961;47.702;9.410;2023-05-08T09:46:19;14.40;99.90
5870;DHT22;2961;47.702;9.410;2023-05-08T09:48:46;14.40;99.90
5870;DHT22;2961;47.702;9.410;2023-05-08T09:51:14;14.40;99.90
5870;DHT22;2961;47.702;9.410;2023-05-08T09:53:41;14.40;99.90
5870;DHT22;2961;47.702;9.410;2023-05-08T09:56:08;14.40;99.90
5870;DHT22;2961;47.702;9.410;2023-05-08T09:58:38;14.40;99.90
5870;DHT22;2961;47.702;9.410;2023-05-08T10:01:06;14.40;99.90
5870;DHT22;2961;47.702;9.410;2023-05-08T10:03:46;14.50;99.90
5870;DHT22;2961;47.702;9.410;2023-05-08T10:06:15;14.50;99.90
5870;DHT22;2961;47.702;9.410;2023-05-08T10:08:42;14.50;99.90
5870;DHT22;2961;47.702;9.410;2023-05-08T10:11:16;14.60;99.90
5870;DHT22;2961;47.702;9.410;2023-05-08T10:21:34;14.70;99.90
5870;DHT22;2961;47.702;9.410;2023-05-08T10:24:05;14.80;99.90
5870;DHT22;2961;47.702;9.410;2023-05-08T10:26:40;14.80;99.90
5870;DHT22;2961;47.702;9.410;2023-05-08T10:29:15;14.90;99.90
5870;DHT22;2961;47.702;9.410;2023-05-08T10:31:43;14.90;99.90
5870;DHT22;2961;47.702;9.410;2023-05-08T10:34:13;15.00;99.90
5870;DHT22;2961;47.702;9.410;2023-05-08T10:36:45;15.10;99.90
5870;DHT22;2961;47.702;9.410;2023-05-08T10:39:13;15.10;99.90
5870;DHT22;2961;47.702;9.410;2023-05-08T10:41:41;15.10;99.90
5870;DHT22;2961;47.702;9.410;2023-05-08T10:44:08;15.20;99.90
5870;DHT22;2961;47.702;9.410;2023-05-08T10:46:39;15.20;99.90
5870;DHT22;2961;47.702;9.410;2023-05-08T10:49:17;15.20;99.90
5870;DHT22;2961;47.702;9.410;2023-05-08T10:51:55;15.30;99.90
5870;DHT22;2961;47.702;9.410;2023-05-08T10:54:33;15.40;99.90
5870;DHT22;2961;47.702;9.410;2023-05-08T10:57:08;15.40;99.90
5870;DHT22;2961;47.702;9.410;2023-05-08T10:59:36;15.30;99.90
5870;DHT22;2961;47.702;9.410;2023-05-08T11:02:04;15.30;99.90
5870;DHT22;2961;47.702;9.410;2023-05-08T11:04:31;15.40;99.90
5870;DHT22;2961;47.702;9.410;2023-05-08T11:07:00;15.60;99.90
5870;DHT22;2961;47.702;9.410;2023-05-08T11:09:28;15.60;99.90
5870;DHT22;2961;47.702;9.410;2023-05-08T11:12:04;15.80;99.90
5870;DHT22;2961;47.702;9.410;2023-05-08T11:14:34;15.80;99.90
5870;DHT22;2961;47.702;9.410;2023-05-08T11:17:05;15.80;99.90
5870;DHT22;2961;47.702;9.410;2023-05-08T11:19:33;15.80;99.90
5870;DHT22;2961;47.702;9.410;2023-05-08T11:22:22;16.00;99.90
5870;DHT22;2961;47.702;9.410;2023-05-08T11:24:55;16.20;99.90
5870;DHT22;2961;47.702;9.410;2023-05-08T11:30:36;16.80;99.90
5870;DHT22;2961;47.702;9.410;2023-05-08T11:33:15;17.00;99.90
5870;DHT22;2961;47.702;9.410;2023-05-08T11:35:48;17.30;99.90
5870;DHT22;2961;47.702;9.410;2023-05-08T11:38:22;17.50;99.90
5870;DHT22;2961;47.702;9.410;2023-05-08T11:40:54;17.60;99.90
5870;DHT22;2961;47.702;9.410;2023-05-08T11:46:37;17.80;99.90
5870;DHT22;2961;47.702;9.410;2023-05-08T11:49:04;17.90;99.90
5870;DHT22;2961;47.702;9.410;2023-05-08T11:51:31;18.00;99.90
5870;DHT22;2961;47.702;9.410;2023-05-08T11:54:00;18.00;99.90
5870;DHT22;2961;47.702;9.410;2023-05-08T11:56:26;18.10;99.90
5870;DHT22;2961;47.702;9.410;2023-05-08T11:59:01;18.40;99.90
5870;DHT22;2961;47.702;9.410;2023-05-08T12:01:29;18.60;99.90
5870;DHT22;2961;47.702;9.410;2023-05-08T12:04:01;18.70;99.90
5870;DHT22;2961;47.702;9.410;2023-05-08T12:06:27;18.70;99.90
5870;DHT22;2961;47.702;9.410;2023-05-08T12:08:56;18.90;99.90
5870;DHT22;2961;47.702;9.410;2023-05-08T12:11:24;19.00;99.90
5870;DHT22;2961;47.702;9.410;2023-05-08T12:13:52;19.20;99.90
5870;DHT22;2961;47.702;9.410;2023-05-08T12:16:19;19.40;99.90
5870;DHT22;2961;47.702;9.410;2023-05-08T12:18:49;19.50;99.90
5870;DHT22;2961;47.702;9.410;2023-05-08T12:21:16;19.60;99.90
5870;DHT22;2961;47.702;9.410;2023-05-08T12:23:42;19.60;99.90
5870;DHT22;2961;47.702;9.410;2023-05-08T12:26:09;19.50;99.90
5870;DHT22;2961;47.702;9.410;2023-05-08T12:28:38;19.60;99.90
5870;DHT22;2961;47.702;9.410;2023-05-08T12:31:06;19.50;99.90
5870;DHT22;2961;47.702;9.410;2023-05-08T12:33:33;19.60;99.90
5870;DHT22;2961;47.702;9.410;2023-05-08T12:36:00;19.70;99.90
5870;DHT22;2961;47.702;9.410;2023-05-08T12:38:27;19.80;99.90
5870;DHT22;2961;47.702;9.410;2023-05-08T12:40:54;19.80;99.90
5870;DHT22;2961;47.702;9.410;2023-05-08T12:43:30;19.80;99.90
5870;DHT22;2961;47.702;9.410;2023-05-08T12:45:58;19.70;99.90
5870;DHT22;2961;47.702;9.410;2023-05-08T12:48:25;19.70;99.90
5870;DHT22;2961;47.702;9.410;2023-05-08T12:50:52;19.80;99.90
5870;DHT22;2961;47.702;9.410;2023-05-08T12:53:20;19.90;99.90
5870;DHT22;2961;47.702;9.410;2023-05-08T12:55:51;19.60;99.90
5870;DHT22;2961;47.702;9.410;2023-05-08T12:58:19;19.60;99.90
5870;DHT22;2961;47.702;9.410;2023-05-08T13:00:47;19.60;99.90
5870;DHT22;2961;47.702;9.410;2023-05-08T13:03:22;19.50;99.90
5870;DHT22;2961;47.702;9.410;2023-05-08T13:05:50;19.50;99.90
5870;DHT22;2961;47.702;9.410;2023-05-08T13:08:18;19.50;99.90
5870;DHT22;2961;47.702;9.410;2023-05-08T13:10:46;19.60;99.90
5870;DHT22;2961;47.702;9.410;2023-05-08T13:13:14;19.50;99.90
5870;DHT22;2961;47.702;9.410;2023-05-08T13:15:42;19.50;99.90
5870;DHT22;2961;47.702;9.410;2023-05-08T13:18:09;19.40;99.90
5870;DHT22;2961;47.702;9.410;2023-05-08T13:20:37;19.30;99.90
5870;DHT22;2961;47.702;9.410;2023-05-08T13:23:05;19.30;99.90
5870;DHT22;2961;47.702;9.410;2023-05-08T13:25:32;19.30;99.90
5870;DHT22;2961;47.702;9.410;2023-05-08T13:27:59;19.40;99.90
5870;DHT22;2961;47.702;9.410;2023-05-08T13:30:26;19.40;99.90
5870;DHT22;2961;47.702;9.410;2023-05-08T13:32:53;19.40;99.90
5870;DHT22;2961;47.702;9.410;2023-05-08T13:35:20;19.50;99.90
5870;DHT22;2961;47.702;9.410;2023-05-08T13:37:49;19.50;99.90
5870;DHT22;2961;47.702;9.410;2023-05-08T13:40:16;19.60;99.90
5870;DHT22;2961;47.702;9.410;2023-05-08T13:42:43;19.70;99.90
5870;DHT22;2961;47.702;9.410;2023-05-08T13:45:10;19.60;99.90
5870;DHT22;2961;47.702;9.410;2023-05-08T13:47:39;19.60;99.90
5870;DHT22;2961;47.702;9.410;2023-05-08T13:50:07;19.60;99.90
5870;DHT22;2961;47.702;9.410;2023-05-08T13:52:34;19.60;99.90
5870;DHT22;2961;47.702;9.410;2023-05-08T13:55:04;19.50;99.90
5870;DHT22;2961;47.702;9.410;2023-05-08T13:57:31;19.30;99.90
5870;DHT22;2961;47.702;9.410;2023-05-08T13:59:58;19.40;99.90
5870;DHT22;2961;47.702;9.410;2023-05-08T14:02:25;19.30;99.90
5870;DHT22;2961;47.702;9.410;2023-05-08T14:04:52;19.20;99.90
5870;DHT22;2961;47.702;9.410;2023-05-08T14:07:18;19.20;99.90
5870;DHT22;2961;47.702;9.410;2023-05-08T14:09:45;19.10;99.90
5870;DHT22;2961;47.702;9.410;2023-05-08T14:12:23;18.90;99.90
5870;DHT22;2961;47.702;9.410;2023-05-08T14:14:49;19.00;99.90
5870;DHT22;2961;47.702;9.410;2023-05-08T14:17:16;19.00;99.90
5870;DHT22;2961;47.702;9.410;2023-05-08T14:19:43;19.00;99.90
5870;DHT22;2961;47.702;9.410;2023-05-08T14:22:10;19.00;99.90
5870;DHT22;2961;47.702;9.410;2023-05-08T14:24:37;18.80;99.90
5870;DHT22;2961;47.702;9.410;2023-05-08T14:27:04;18.70;99.90
5870;DHT22;2961;47.702;9.410;2023-05-08T14:29:32;18.60;99.90
5870;DHT22;2961;47.702;9.410;2023-05-08T14:31:59;18.50;99.90
5870;DHT22;2961;47.702;9.410;2023-05-08T14:34:26;18.40;99.90
5870;DHT22;2961;47.702;9.410;2023-05-08T14:36:52;18.40;99.90
5870;DHT22;2961;47.702;9.410;2023-05-08T14:39:19;18.40;99.90
5870;DHT22;2961;47.702;9.410;2023-05-08T14:41:46;18.40;99.90
5870;DHT22;2961;47.702;9.410;2023-05-08T14:44:13;18.30;99.90
5870;DHT22;2961;47.702;9.410;2023-05-08T14:46:41;18.00;99.90
5870;DHT22;2961;47.702;9.410;2023-05-08T14:49:08;17.80;99.90
5870;DHT22;2961;47.702;9.410;2023-05-08T14:51:34;17.70;99.90
5870;DHT22;2961;47.702;9.410;2023-05-08T14:54:01;17.50;99.90
5870;DHT22;2961;47.702;9.410;2023-05-08T14:56:28;17.40;99.90
5870;DHT22;2961;47.702;9.410;2023-05-08T14:58:55;17.30;99.90
5870;DHT22;2961;47.702;9.410;2023-05-08T15:01:22;17.20;99.90
5870;DHT22;2961;47.702;9.410;2023-05-08T15:03:50;17.10;99.90
5870;DHT22;2961;47.702;9.410;2023-05-08T15:06:19;17.00;99.90
5870;DHT22;2961;47.702;9.410;2023-05-08T15:08:46;17.00;99.90
5870;DHT22;2961;47.702;9.410;2023-05-08T15:11:13;17.00;99.90
5870;DHT22;2961;47.702;9.410;2023-05-08T15:13:40;17.20;99.90
5870;DHT22;2961;47.702;9.410;2023-05-08T15:16:07;17.20;99.90
5870;DHT22;2961;47.702;9.410;2023-05-08T15:18:35;17.30;99.90
5870;DHT22;2961;47.702;9.410;2023-05-08T15:21:04;17.40;99.90
5870;DHT22;2961;47.702;9.410;2023-05-08T15:23:31;17.50;99.90
5870;DHT22;2961;47.702;9.410;2023-05-08T15:26:07;17.60;99.90
5870;DHT22;2961;47.702;9.410;2023-05-08T15:28:34;17.60;99.90
5870;DHT22;2961;47.702;9.410;2023-05-08T15:31:07;17.70;99.90
5870;DHT22;2961;47.702;9.410;2023-05-08T15:33:33;17.90;99.90
5870;DHT22;2961;47.702;9.410;2023-05-08T15:36:00;18.00;99.90
5870;DHT22;2961;47.702;9.410;2023-05-08T15:38:28;17.90;99.90
5870;DHT22;2961;47.702;9.410;2023-05-08T15:40:55;17.90;99.90
5870;DHT22;2961;47.702;9.410;2023-05-08T15:43:22;18.00;99.90
5870;DHT22;2961;47.702;9.410;2023-05-08T15:45:48;18.30;99.90
5870;DHT22;2961;47.702;9.410;2023-05-08T15:48:15;18.40;99.90
5870;DHT22;2961;47.702;9.410;2023-05-08T15:50:42;18.60;99.90
5870;DHT22;2961;47.702;9.410;2023-05-08T15:53:09;18.60;99.90
5870;DHT22;2961;47.702;9.410;2023-05-08T15:55:37;18.80;99.90
5870;DHT22;2961;47.702;9.410;2023-05-08T15:58:04;18.90;99.90
5870;DHT22;2961;47.702;9.410;2023-05-08T16:00:30;18.80;99.90
5870;DHT22;2961;47.702;9.410;2023-05-08T16:02:57;18.90;99.90
5870;DHT22;2961;47.702;9.410;2023-05-08T16:05:24;18.80;99.90
5870;DHT22;2961;47.702;9.410;2023-05-08T16:07:51;18.80;99.90
5870;DHT22;2961;47.702;9.410;2023-05-08T16:10:20;18.70;99.90
5870;DHT22;2961;47.702;9.410;2023-05-08T16:12:48;18.40;99.90
5870;DHT22;2961;47.702;9.410;2023-05-08T16:15:15;18.10;99.90
5870;DHT22;2961;47.702;9.410;2023-05-08T16:17:42;17.80;99.90
5870;DHT22;2961;47.702;9.410;2023-05-08T16:20:10;17.70;99.90
5870;DHT22;2961;47.702;9.410;2023-05-08T16:22:37;17.50;99.90
5870;DHT22;2961;47.702;9.410;2023-05-08T16:25:04;17.40;99.90
5870;DHT22;2961;47.702;9.410;2023-05-08T16:27:31;17.30;99.90
5870;DHT22;2961;47.702;9.410;2023-05-08T16:29:59;17.30;99.90